Time;durP1;ratioP1;P1;durP2;ratioP2;P2;SDS_P1;SDS_P2;PMS_P1;PMS_P2;Temp;Humidity;BMP_temperature;BMP_pressure;BME280_temperature;BME280_humidity;BME280_pressure;Samples;Min_cycle;Max_cycle;Signal;HPM_P1;HPM_P2
2023/07/21 00:00:13;;;;;;;8.02;3.33;;;14.00;99.90;;;;;;5137083;27;20088;-71
2023/07/21 00:02:41;;;;;;;7.22;3.50;;;14.00;99.90;;;;;;5137316;27;20050;-72
2023/07/21 00:05:07;;;;;;;8.55;3.80;;;13.90;99.90;;;;;;5137875;27;20043;-71
2023/07/21 00:07:35;;;;;;;7.55;3.78;;;13.80;99.90;;;;;;5119967;27;20184;-70
2023/07/21 00:10:07;;;;;;;8.27;3.75;;;13.80;99.90;;;;;;5119091;27;20384;-71
2023/07/21 00:12:37;;;;;;;7.05;3.90;;;13.80;99.90;;;;;;5119186;27;20040;-71
2023/07/21 00:15:04;;;;;;;5.53;2.85;;;13.80;99.90;;;;;;5118937;27;20487;-72
2023/07/21 00:17:31;;;;;;;;;;;13.80;99.90;;;;;;5119117;27;20127;-71
2023/07/21 00:20:07;;;;;;;7.18;3.28;;;13.90;99.90;;;;;;5136884;27;19972;-71
2023/07/21 00:22:33;;;;;;;6.20;2.92;;;13.90;99.90;;;;;;5137256;27;20066;-71
2023/07/21 00:25:05;;;;;;;6.35;3.22;;;14.00;99.90;;;;;;5118159;27;20475;-71
2023/07/21 00:27:31;;;;;;;7.78;3.00;;;14.10;99.90;;;;;;5120369;27;20111;-70
2023/07/21 00:29:57;;;;;;;6.13;2.72;;;14.10;99.90;;;;;;5118889;27;20055;-71
2023/07/21 00:32:22;;;;;;;8.60;3.00;;;14.10;99.90;;;;;;5118364;27;20047;-71
2023/07/21 00:34:50;;;;;;;6.97;3.22;;;14.10;99.90;;;;;;5118987;27;20130;-71
2023/07/21 00:37:17;;;;;;;8.02;2.92;;;14.00;99.90;;;;;;5136595;27;20058;-71
2023/07/21 00:39:44;;;;;;;6.78;2.92;;;14.00;99.90;;;;;;5118369;27;20043;-71
2023/07/21 00:42:11;;;;;;;4.78;2.75;;;14.00;99.90;;;;;;5136524;27;20390;-71
2023/07/21 00:44:37;;;;;;;6.22;2.53;;;14.00;99.90;;;;;;5152857;27;20479;-71
2023/07/21 00:47:03;;;;;;;8.07;3.00;;;14.00;99.90;;;;;;5153073;27;20047;-71
2023/07/21 00:49:32;;;;;;;7.40;2.53;;;14.00;99.90;;;;;;5153628;27;20068;-71
2023/07/21 00:51:58;;;;;;;6.97;2.50;;;14.00;99.90;;;;;;5136332;27;20043;-71
2023/07/21 00:54:23;;;;;;;6.47;2.17;;;14.00;99.90;;;;;;5117717;27;20050;-71
2023/07/21 00:56:49;;;;;;;5.05;2.20;;;14.00;99.90;;;;;;5135888;27;20054;-71
2023/07/21 00:59:17;;;;;;;4.45;2.15;;;14.00;99.90;;;;;;5118054;27;20122;-71
2023/07/21 01:01:42;;;;;;;6.00;2.05;;;14.00;99.90;;;;;;5135889;27;20035;-71
2023/07/21 01:04:09;;;;;;;5.22;1.95;;;14.10;99.90;;;;;;5136839;27;20043;-71
2023/07/21 01:06:37;;;;;;;5.10;2.00;;;14.10;99.90;;;;;;5136131;27;20043;-71
2023/07/21 01:09:06;;;;;;;6.78;1.77;;;14.10;99.90;;;;;;5136049;27;20047;-72
2023/07/21 01:11:33;;;;;;;4.80;2.00;;;14.10;99.90;;;;;;5100970;27;20061;-72
2023/07/21 01:14:02;;;;;;;5.22;1.80;;;14.10;99.90;;;;;;5136104;27;20475;-73
2023/07/21 01:16:30;;;;;;;4.88;1.80;;;14.10;99.90;;;;;;5135910;27;20046;-71
2023/07/21 01:18:56;;;;;;;6.93;1.85;;;14.10;99.90;;;;;;5118056;27;20078;-72
2023/07/21 01:21:35;;;;;;;5.18;2.22;;;14.00;99.90;;;;;;5135829;27;20160;-72
2023/07/21 01:24:09;;;;;;;6.88;1.85;;;14.00;99.90;;;;;;5102217;27;20488;-72
2023/07/21 01:26:37;;;;;;;7.03;2.08;;;14.00;99.90;;;;;;5117512;27;20043;-73
2023/07/21 01:29:07;;;;;;;5.75;2.00;;;14.00;99.90;;;;;;5135576;27;20043;-72
2023/07/21 01:31:35;;;;;;;4.50;1.90;;;14.00;99.90;;;;;;5136467;27;20047;-71
2023/07/21 01:34:03;;;;;;;6.25;2.35;;;13.90;99.90;;;;;;5135582;27;20047;-72
2023/07/21 01:36:30;;;;;;;5.53;1.80;;;13.90;99.90;;;;;;5100399;27;20058;-71
2023/07/21 01:38:57;;;;;;;6.57;2.00;;;13.90;99.90;;;;;;5117297;27;20043;-73
2023/07/21 01:41:24;;;;;;;6.35;2.15;;;13.90;99.90;;;;;;5135248;27;20051;-72
2023/07/21 01:43:53;;;;;;;6.18;2.05;;;13.90;99.90;;;;;;5135466;27;20039;-72
2023/07/21 01:46:19;;;;;;;6.25;2.00;;;13.90;99.90;;;;;;5117427;27;20039;-71
2023/07/21 01:48:46;;;;;;;6.05;2.20;;;13.90;99.90;;;;;;5135303;27;20049;-72
2023/07/21 01:51:14;;;;;;;8.23;2.33;;;14.00;99.90;;;;;;5135205;27;20051;-72
2023/07/21 01:53:45;;;;;;;4.95;2.00;;;14.00;99.90;;;;;;5150978;27;20097;-72
2023/07/21 01:56:41;;;;;;;5.55;2.08;;;14.00;99.90;;;;;;5117315;27;20107;-72
2023/07/21 01:59:10;;;;;;;4.72;2.42;;;14.00;99.90;;;;;;5133832;27;20159;-72
2023/07/21 02:01:37;;;;;;;4.32;2.25;;;14.00;99.90;;;;;;5134657;27;20513;-71
2023/07/21 02:04:05;;;;;;;6.28;2.40;;;14.00;99.90;;;;;;5135760;27;20047;-72
2023/07/21 02:06:32;;;;;;;6.30;2.60;;;14.00;99.90;;;;;;5134019;27;20501;-73
2023/07/21 02:08:58;;;;;;;4.97;1.90;;;14.00;99.90;;;;;;5116722;27;20437;-72
2023/07/21 02:11:24;;;;;;;6.13;1.98;;;14.00;99.90;;;;;;5116807;27;20096;-72
2023/07/21 02:13:50;;;;;;;5.57;2.08;;;13.90;99.90;;;;;;5133637;27;20045;-72
2023/07/21 02:16:15;;;;;;;7.70;2.58;;;13.90;99.90;;;;;;5133719;27;20031;-72
2023/07/21 02:18:42;;;;;;;6.47;2.50;;;13.80;99.90;;;;;;5134807;27;20130;-73
2023/07/21 02:21:08;;;;;;;7.68;2.58;;;13.70;99.90;;;;;;5116518;27;20043;-72
2023/07/21 02:23:33;;;;;;;5.90;2.40;;;13.70;99.90;;;;;;5134590;27;20470;-71
2023/07/21 02:25:59;;;;;;;4.20;2.05;;;13.70;99.90;;;;;;5134655;27;20078;-73
2023/07/21 02:28:25;;;;;;;4.07;1.70;;;13.70;99.90;;;;;;5116663;27;20039;-72
2023/07/21 02:31:04;;;;;;;6.57;2.40;;;13.70;99.90;;;;;;5134695;27;20083;-71
2023/07/21 02:33:38;;;;;;;9.65;2.72;;;13.70;99.90;;;;;;5099815;27;20043;-72
2023/07/21 02:36:05;;;;;;;6.72;2.65;;;13.70;99.90;;;;;;5134631;27;20046;-72
2023/07/21 02:38:31;;;;;;;7.13;2.67;;;13.70;99.90;;;;;;5134571;27;20082;-72
2023/07/21 02:41:03;;;;;;;5.53;2.65;;;13.70;99.90;;;;;;5135111;27;20127;-73
2023/07/21 02:43:29;;;;;;;7.07;2.67;;;13.70;99.90;;;;;;5116178;28;20039;-72
2023/07/21 02:45:55;;;;;;;7.20;2.63;;;13.70;99.90;;;;;;5099627;28;20051;-72
2023/07/21 02:48:21;;;;;;;8.95;2.90;;;13.70;99.90;;;;;;5138497;27;20458;-73
2023/07/21 02:50:49;;;;;;;9.80;2.70;;;13.70;99.90;;;;;;5142091;27;20053;-72
2023/07/21 02:53:16;;;;;;;7.30;3.30;;;13.70;99.90;;;;;;5122613;27;20035;-69
2023/07/21 02:55:43;;;;;;;7.43;2.90;;;13.70;99.90;;;;;;5105826;27;20138;-72
2023/07/21 02:58:09;;;;;;;;;;;13.70;99.90;;;;;;5142133;27;20051;-73
2023/07/21 03:00:35;;;;;;;7.22;2.90;;;13.70;99.90;;;;;;5123484;27;19970;-72
2023/07/21 03:03:03;;;;;;;6.68;2.95;;;13.70;99.90;;;;;;5122706;27;20073;-72
2023/07/21 03:05:29;;;;;;;7.07;3.25;;;13.60;99.90;;;;;;5141057;27;20035;-72
2023/07/21 03:07:59;;;;;;;6.13;2.75;;;13.70;99.90;;;;;;5105883;27;20047;-73
2023/07/21 03:10:25;;;;;;;7.68;3.92;;;13.70;99.90;;;;;;5141864;27;20051;-72
2023/07/21 03:12:52;;;;;;;7.63;3.50;;;13.70;99.90;;;;;;5122919;27;20051;-72
2023/07/21 03:15:17;;;;;;;4.80;3.03;;;13.70;99.90;;;;;;5140963;27;20047;-72
2023/07/21 03:17:43;;;;;;;6.68;3.53;;;13.60;99.90;;;;;;5140999;27;20276;-72
2023/07/21 03:20:14;;;;;;;6.70;3.25;;;13.60;99.90;;;;;;5140825;27;20050;-72
2023/07/21 03:22:42;;;;;;;6.70;3.50;;;13.70;99.90;;;;;;5106367;27;20047;-73
2023/07/21 03:25:09;;;;;;;7.57;3.42;;;13.60;99.90;;;;;;5140910;27;20050;-73
2023/07/21 03:27:35;;;;;;;8.55;3.75;;;13.60;99.90;;;;;;5157257;27;20437;-72
2023/07/21 03:30:02;;;;;;;7.13;3.75;;;13.60;99.90;;;;;;5140863;27;20474;-72
2023/07/21 03:32:28;;;;;;;8.35;3.60;;;13.60;99.90;;;;;;5140731;27;20039;-73
2023/07/21 03:34:57;;;;;;;9.60;3.22;;;13.50;99.90;;;;;;5122590;27;20035;-72
2023/07/21 03:37:26;;;;;;;7.38;3.63;;;13.50;99.90;;;;;;5122854;27;20131;-72
2023/07/21 03:39:52;;;;;;;8.32;3.15;;;13.40;99.90;;;;;;5140841;27;20079;-72
2023/07/21 03:42:18;;;;;;;8.13;3.65;;;13.40;99.90;;;;;;5140574;27;20086;-73
2023/07/21 03:44:51;;;;;;;7.50;3.40;;;13.40;99.90;;;;;;5140746;27;20039;-72
2023/07/21 03:47:20;;;;;;;8.30;3.45;;;13.40;99.90;;;;;;5105755;27;20051;-72
2023/07/21 03:49:50;;;;;;;7.05;3.20;;;13.30;99.90;;;;;;5122544;27;20051;-72
2023/07/21 03:52:18;;;;;;;8.48;3.38;;;13.30;99.90;;;;;;5119489;27;20118;-73
2023/07/21 03:54:43;;;;;;;9.45;3.72;;;13.30;99.90;;;;;;5122858;27;20059;-73
2023/07/21 03:57:10;;;;;;;6.45;3.08;;;13.40;99.90;;;;;;5140953;27;20050;-73
2023/07/21 03:59:38;;;;;;;8.27;3.40;;;13.40;99.90;;;;;;5086600;27;20082;-72
2023/07/21 04:02:04;;;;;;;6.97;3.30;;;13.40;99.90;;;;;;5119100;27;20333;-72
2023/07/21 04:04:32;;;;;;;6.72;3.30;;;13.40;99.90;;;;;;5137364;27;20047;-72
2023/07/21 04:07:01;;;;;;;10.45;3.78;;;13.40;99.90;;;;;;5119104;27;20406;-73
2023/07/21 04:09:27;;;;;;;8.10;3.25;;;13.40;99.90;;;;;;5137768;27;20050;-72
2023/07/21 04:11:53;;;;;;;10.13;4.00;;;13.30;99.90;;;;;;5102348;27;20047;-72
2023/07/21 04:14:19;;;;;;;9.07;3.97;;;13.30;99.90;;;;;;5118993;27;20039;-72
2023/07/21 04:16:45;;;;;;;8.50;3.95;;;13.30;99.90;;;;;;5119208;27;20111;-72
2023/07/21 04:19:11;;;;;;;8.10;3.70;;;13.30;99.90;;;;;;5137135;27;20512;-71
2023/07/21 04:21:37;;;;;;;8.27;4.38;;;13.30;99.90;;;;;;5118483;27;20371;-72
2023/07/21 04:24:03;;;;;;;6.72;3.95;;;13.40;99.90;;;;;;5118633;27;20122;-72
2023/07/21 04:26:29;;;;;;;8.97;4.17;;;13.40;99.90;;;;;;5118690;27;20047;-72
2023/07/21 04:28:55;;;;;;;8.57;3.92;;;13.50;99.90;;;;;;5118765;27;20043;-71
2023/07/21 04:31:22;;;;;;;12.25;4.68;;;13.60;99.90;;;;;;5137355;27;20410;-72
2023/07/21 04:33:50;;;;;;;;;;;13.60;99.90;;;;;;5102646;27;20043;-72
2023/07/21 04:36:16;;;;;;;9.80;4.88;;;13.60;99.90;;;;;;5136849;27;20293;-73
2023/07/21 04:38:42;;;;;;;10.90;5.13;;;13.60;99.90;;;;;;5119344;27;20050;-72
2023/07/21 04:41:07;;;;;;;11.82;5.32;;;13.50;99.90;;;;;;5118173;27;20389;-72
2023/07/21 04:43:33;;;;;;;11.32;5.10;;;13.60;99.90;;;;;;5136509;27;20047;-71
2023/07/21 04:45:59;;;;;;;9.27;4.88;;;13.70;99.90;;;;;;5136549;27;20070;-71
2023/07/21 04:48:24;;;;;;;8.43;4.78;;;13.70;99.90;;;;;;5100709;27;20047;-71
2023/07/21 04:50:53;;;;;;;10.95;5.07;;;13.80;99.90;;;;;;5136570;27;20130;-71
2023/07/21 04:53:19;;;;;;;9.57;4.70;;;13.70;99.90;;;;;;5118181;27;20043;-72
2023/07/21 04:55:45;;;;;;;8.57;4.97;;;13.80;99.90;;;;;;5136637;27;20051;-70
2023/07/21 04:58:11;;;;;;;11.50;5.40;;;13.80;99.90;;;;;;5101086;27;20482;-71
2023/07/21 05:00:36;;;;;;;9.32;5.47;;;13.80;99.90;;;;;;5136181;27;20050;-71
2023/07/21 05:03:02;;;;;;;9.88;5.38;;;13.80;99.90;;;;;;5117512;27;20043;-72
2023/07/21 05:05:28;;;;;;;12.55;5.65;;;13.80;99.90;;;;;;5117604;27;20047;-72
2023/07/21 05:07:55;;;;;;;11.02;5.40;;;13.80;99.90;;;;;;5118138;27;20043;-72
2023/07/21 05:10:22;;;;;;;12.27;5.97;;;13.80;99.90;;;;;;5135613;27;20510;-71
2023/07/21 05:12:48;;;;;;;13.02;5.43;;;13.80;99.90;;;;;;5117833;27;20471;-71
2023/07/21 05:15:13;;;;;;;12.07;5.78;;;13.80;99.90;;;;;;5117994;27;20043;-71
2023/07/21 05:17:40;;;;;;;8.40;5.15;;;13.90;99.90;;;;;;5135711;27;20131;-72
2023/07/21 05:20:11;;;;;;;11.02;5.53;;;14.00;99.90;;;;;;5135911;27;20051;-72
2023/07/21 05:22:37;;;;;;;9.88;5.05;;;14.00;99.90;;;;;;5117402;27;20082;-71
2023/07/21 05:25:07;;;;;;;9.10;5.50;;;14.00;99.90;;;;;;5135768;27;20125;-72
2023/07/21 05:27:34;;;;;;;9.98;5.35;;;14.00;99.90;;;;;;5118291;27;20089;-72
2023/07/21 05:29:59;;;;;;;12.07;5.18;;;14.00;99.90;;;;;;5135735;27;20078;-72
2023/07/21 05:32:25;;;;;;;10.70;5.03;;;14.00;99.90;;;;;;5152085;27;20093;-74
2023/07/21 05:34:51;;;;;;;8.50;5.13;;;14.10;99.90;;;;;;5135426;27;20513;-71
2023/07/21 05:37:17;;;;;;;13.05;4.97;;;14.20;99.90;;;;;;5117185;27;20074;-72
2023/07/21 05:39:43;;;;;;;10.82;5.20;;;14.30;99.90;;;;;;5135660;27;20394;-71
2023/07/21 05:42:09;;;;;;;11.57;5.10;;;14.30;99.90;;;;;;5117040;27;20040;-72
2023/07/21 05:44:37;;;;;;;9.77;4.57;;;14.40;99.90;;;;;;5151588;27;20120;-72
2023/07/21 05:47:03;;;;;;;8.88;4.78;;;14.40;99.90;;;;;;5117256;27;20393;-71
2023/07/21 05:49:29;;;;;;;8.52;4.82;;;14.40;99.90;;;;;;5117065;27;20436;-71
2023/07/21 05:51:55;;;;;;;10.43;5.38;;;14.50;99.90;;;;;;5135757;27;20072;-72
2023/07/21 05:54:20;;;;;;;13.55;5.38;;;14.60;99.90;;;;;;5116516;27;20055;-72
2023/07/21 05:56:46;;;;;;;12.00;5.00;;;14.70;99.90;;;;;;5117006;27;20137;-71
2023/07/21 05:59:12;;;;;;;11.75;4.80;;;14.70;99.90;;;;;;5135119;27;20047;-71
2023/07/21 06:01:38;;;;;;;9.02;5.25;;;14.80;99.90;;;;;;5133823;27;20110;-71
2023/07/21 06:04:05;;;;;;;9.57;5.18;;;14.80;99.90;;;;;;5135198;27;20043;-72
2023/07/21 06:06:31;;;;;;;10.80;5.50;;;14.80;99.90;;;;;;5100687;27;20051;-73
2023/07/21 06:08:58;;;;;;;15.50;5.30;;;14.80;99.90;;;;;;5116887;27;20058;-72
2023/07/21 06:11:26;;;;;;;10.13;4.40;;;14.90;99.90;;;;;;5135154;27;20421;-72
2023/07/21 06:13:52;;;;;;;12.05;4.63;;;14.90;99.90;;;;;;5116725;27;20051;-72
2023/07/21 06:16:17;;;;;;;11.07;4.40;;;15.00;99.90;;;;;;5116632;27;20043;-72
2023/07/21 06:18:43;;;;;;;12.75;4.88;;;15.00;99.90;;;;;;5116382;27;20055;-73
2023/07/21 06:21:12;;;;;;;10.93;4.53;;;15.10;99.90;;;;;;5100138;27;20047;-72
2023/07/21 06:23:41;;;;;;;12.82;4.22;;;15.10;99.90;;;;;;5134179;27;20553;-71
2023/07/21 06:26:06;;;;;;;16.23;4.78;;;15.10;99.90;;;;;;5134976;27;20094;-72
2023/07/21 06:28:32;;;;;;;9.52;5.00;;;15.20;99.90;;;;;;5134641;27;20047;-72
2023/07/21 06:30:58;;;;;;;10.98;4.63;;;15.20;99.90;;;;;;5134858;27;20050;-72
2023/07/21 06:33:24;;;;;;;9.60;4.18;;;15.40;99.90;;;;;;5134531;27;20039;-71
2023/07/21 06:35:50;;;;;;;9.38;3.97;;;15.40;99.90;;;;;;5116231;27;20090;-72
2023/07/21 06:38:16;;;;;;;9.07;4.38;;;15.50;99.90;;;;;;5117173;28;20043;-72
2023/07/21 06:40:41;;;;;;;8.95;4.03;;;15.60;99.90;;;;;;5116226;28;20043;-72
2023/07/21 06:43:07;;;;;;;7.97;3.80;;;15.70;99.90;;;;;;5116124;27;20043;-72
2023/07/21 06:45:33;;;;;;;10.90;4.38;;;15.80;99.90;;;;;;5135211;27;20039;-71
2023/07/21 06:48:00;;;;;;;10.00;3.65;;;15.90;99.90;;;;;;5134332;28;20057;-71
2023/07/21 06:50:25;;;;;;;11.52;4.20;;;16.10;99.90;;;;;;5134445;28;20108;-71
2023/07/21 06:52:51;;;;;;;9.20;4.10;;;16.20;99.90;;;;;;5117093;28;20055;-73
2023/07/21 06:55:17;;;;;;;5.97;3.60;;;16.30;99.90;;;;;;5134715;28;20051;-72
2023/07/21 06:57:43;;;;;;;9.73;3.57;;;16.40;99.90;;;;;;5099525;28;20035;-72
2023/07/21 07:00:12;;;;;;;5.83;2.87;;;16.50;99.90;;;;;;5134345;28;20390;-71
2023/07/21 07:02:39;;;;;;;5.95;2.65;;;16.50;99.90;;;;;;5116223;28;20043;-73
2023/07/21 07:05:05;;;;;;;7.75;2.80;;;16.60;99.90;;;;;;5100194;28;20043;-71
2023/07/21 07:07:30;;;;;;;4.13;1.83;;;16.70;99.90;;;;;;5135127;28;20043;-71
2023/07/21 07:09:57;;;;;;;6.93;2.37;;;16.70;99.90;;;;;;5134222;28;20539;-71
2023/07/21 07:12:22;;;;;;;10.33;2.77;;;16.70;99.90;;;;;;5134337;28;20051;-71
2023/07/21 07:14:48;;;;;;;7.05;2.70;;;16.90;99.90;;;;;;5116623;28;20334;-72
2023/07/21 07:17:14;;;;;;;7.90;3.20;;;16.90;99.90;;;;;;5134741;28;20379;-71
2023/07/21 07:19:40;;;;;;;5.00;2.20;;;17.00;99.90;;;;;;5116048;28;20043;-71
2023/07/21 07:22:08;;;;;;;6.32;2.25;;;17.10;99.90;;;;;;5134012;28;20035;-72
2023/07/21 07:24:35;;;;;;;5.45;2.33;;;17.20;99.90;;;;;;5132999;28;20138;-71
2023/07/21 07:27:00;;;;;;;4.75;1.83;;;17.30;99.90;;;;;;5116299;28;20047;-71
2023/07/21 07:29:27;;;;;;;4.97;1.90;;;17.30;99.90;;;;;;5099271;28;20051;-72
2023/07/21 07:31:53;;;;;;;4.78;1.90;;;17.30;99.90;;;;;;5116401;28;20130;-71
2023/07/21 07:34:18;;;;;;;7.23;2.10;;;17.40;99.90;;;;;;5117657;27;20134;-71
2023/07/21 07:36:44;;;;;;;4.10;1.90;;;17.40;99.90;;;;;;5137712;27;20084;-72
2023/07/21 07:39:11;;;;;;;6.93;2.00;;;17.50;99.90;;;;;;5137643;27;20047;-71
2023/07/21 07:41:38;;;;;;;6.43;1.90;;;17.60;99.90;;;;;;5120485;27;20468;-72
2023/07/21 07:44:06;;;;;;;5.32;2.10;;;17.70;99.90;;;;;;5102680;27;20176;-71
2023/07/21 07:46:32;;;;;;;6.93;2.25;;;17.90;99.90;;;;;;5119655;27;20043;-72
2023/07/21 07:48:57;;;;;;;3.67;1.73;;;17.90;99.90;;;;;;5102631;27;20580;-70
2023/07/21 07:51:23;;;;;;;6.70;1.70;;;17.90;99.90;;;;;;5119873;27;20043;-71
2023/07/21 07:53:49;;;;;;;2.70;1.23;;;17.90;99.90;;;;;;5137346;27;20455;-71
2023/07/21 07:56:15;;;;;;;4.53;1.50;;;17.90;99.90;;;;;;5120064;27;20078;-71
2023/07/21 07:58:41;;;;;;;5.10;1.80;;;18.00;99.90;;;;;;5119405;27;20120;-71
2023/07/21 08:01:07;;;;;;;4.85;1.30;;;18.10;99.90;;;;;;5119284;27;20047;-69
2023/07/21 08:03:33;;;;;;;6.40;1.50;;;18.10;99.90;;;;;;5119751;27;20049;-71
2023/07/21 08:05:59;;;;;;;5.23;1.57;;;18.30;99.90;;;;;;5119181;27;20043;-70
2023/07/21 08:08:25;;;;;;;8.23;1.88;;;18.50;99.90;;;;;;5102279;27;20043;-72
2023/07/21 08:10:51;;;;;;;3.65;1.42;;;18.70;99.90;;;;;;5137196;27;20047;-70
2023/07/21 08:13:17;;;;;;;5.70;1.60;;;18.90;99.90;;;;;;5136851;27;20065;-71
2023/07/21 08:15:44;;;;;;;3.83;1.50;;;19.00;99.90;;;;;;5137165;27;20099;-71
2023/07/21 08:18:11;;;;;;;3.92;1.50;;;19.00;99.90;;;;;;5118931;27;20058;-71
2023/07/21 08:20:38;;;;;;;5.25;1.40;;;19.20;99.90;;;;;;5137100;27;20051;-70
2023/07/21 08:23:04;;;;;;;3.88;1.40;;;19.30;99.90;;;;;;5136671;27;20475;-72
2023/07/21 08:25:30;;;;;;;5.25;1.67;;;19.40;99.90;;;;;;5101974;27;20042;-70
2023/07/21 08:27:55;;;;;;;4.00;1.60;;;19.40;99.90;;;;;;5118763;27;20051;-70
2023/07/21 08:30:21;;;;;;;3.27;1.53;;;19.50;99.90;;;;;;5118589;27;20502;-70
2023/07/21 08:32:47;;;;;;;4.87;1.50;;;19.40;99.90;;;;;;5153115;27;20043;-71
2023/07/21 08:35:13;;;;;;;4.07;1.53;;;19.40;99.90;;;;;;5119224;27;20050;-72
2023/07/21 08:37:38;;;;;;;5.20;1.50;;;19.40;99.90;;;;;;5152875;27;20486;-70
2023/07/21 08:40:06;;;;;;;4.23;1.53;;;19.50;99.90;;;;;;5137146;27;20047;-71
2023/07/21 08:42:33;;;;;;;3.88;1.27;;;19.70;99.90;;;;;;5101418;27;20418;-71
2023/07/21 08:45:02;;;;;;;8.13;1.50;;;19.70;99.90;;;;;;5117744;27;20043;-71
2023/07/21 08:47:28;;;;;;;4.10;1.17;;;19.60;99.90;;;;;;5152907;27;20057;-70
2023/07/21 08:49:54;;;;;;;2.37;1.20;;;19.60;99.90;;;;;;5118376;27;20522;-72
2023/07/21 08:52:19;;;;;;;6.90;1.27;;;19.70;99.90;;;;;;5100955;27;20449;-70
2023/07/21 08:54:45;;;;;;;1.80;0.80;;;19.80;99.90;;;;;;5136400;27;20084;-70
2023/07/21 08:57:14;;;;;;;3.17;0.90;;;19.90;99.90;;;;;;5117858;27;20048;-70
2023/07/21 08:59:41;;;;;;;3.13;1.05;;;20.00;99.90;;;;;;5117903;27;20061;-70
2023/07/21 09:02:07;;;;;;;3.42;1.02;;;19.90;99.90;;;;;;5136049;27;20127;-70
2023/07/21 09:04:33;;;;;;;3.78;1.05;;;20.00;99.90;;;;;;5136423;27;20387;-71
2023/07/21 09:07:01;;;;;;;4.00;1.13;;;19.80;99.90;;;;;;5136001;27;20126;-71
2023/07/21 09:09:31;;;;;;;2.80;1.20;;;19.80;99.90;;;;;;5134897;27;20126;-70
2023/07/21 09:12:02;;;;;;;2.55;0.80;;;19.70;99.90;;;;;;5117692;27;20042;-71
2023/07/21 09:14:37;;;;;;;2.97;0.93;;;20.00;99.90;;;;;;5135565;27;20050;-71
2023/07/21 09:17:05;;;;;;;2.47;0.77;;;20.20;99.90;;;;;;5135867;27;20058;-70
2023/07/21 09:19:34;;;;;;;3.42;1.30;;;20.30;99.90;;;;;;5118517;27;20089;-71
2023/07/21 09:22:00;;;;;;;2.90;0.82;;;20.50;99.90;;;;;;5135614;27;20035;-71
2023/07/21 09:24:26;;;;;;;4.97;1.30;;;20.70;99.90;;;;;;5117535;27;20099;-71
2023/07/21 09:27:13;;;;;;;1.63;0.50;;;20.80;99.90;;;;;;5135710;27;20051;-71
2023/07/21 09:29:40;;;;;;;1.90;0.50;;;20.90;99.90;;;;;;5117360;27;20086;-71
2023/07/21 09:32:19;;;;;;;2.00;0.40;;;21.00;99.90;;;;;;5135530;27;20046;-70
2023/07/21 09:34:55;;;;;;;3.20;0.57;;;20.60;99.90;;;;;;5135539;27;20395;-72
2023/07/21 09:37:23;;;;;;;3.42;0.60;;;20.60;99.90;;;;;;5136276;27;20051;-70
2023/07/21 09:39:57;;;;;;;3.08;0.57;;;20.70;99.90;;;;;;5135479;27;20047;-71
2023/07/21 09:42:23;;;;;;;1.70;0.80;;;21.00;99.90;;;;;;5117985;27;20058;-71
2023/07/21 09:44:50;;;;;;;2.13;0.60;;;21.20;99.90;;;;;;5135759;27;20051;-71
2023/07/21 09:47:17;;;;;;;3.80;0.70;;;21.50;99.90;;;;;;5136110;27;20043;-71
2023/07/21 09:49:43;;;;;;;1.58;0.50;;;21.80;99.90;;;;;;5117199;27;20145;-71
2023/07/21 09:52:13;;;;;;;1.60;0.50;;;;;;;;;;5136198;27;20111;-71
2023/07/21 09:54:41;;;;;;;1.27;0.50;;;;;;;;;;5116829;27;20093;-71
2023/07/21 09:57:08;;;;;;;2.10;0.73;;;;;;;;;;5134178;27;20054;-72
2023/07/21 09:59:35;;;;;;;2.88;0.93;;;;;;;;;;5116841;27;20130;-72
2023/07/21 10:02:02;;;;;;;2.33;0.80;;;;;;;;;;5099946;27;20051;-72
2023/07/21 10:04:30;;;;;;;2.63;0.63;;;;;;;;;;5135204;27;20437;-70
2023/07/21 10:06:58;;;;;;;2.25;0.60;;;;;;;;;;5100642;27;20082;-72
2023/07/21 10:09:26;;;;;;;2.05;0.90;;;;;;;;;;5135376;27;20053;-70
2023/07/21 10:11:53;;;;;;;2.17;0.90;;;;;;;;;;5116716;27;20043;-71
2023/07/21 10:14:33;;;;;;;4.00;1.10;;;;;;;;;;5117473;27;20130;-71
2023/07/21 10:17:00;;;;;;;3.38;0.95;;;;;;;;;;5135311;27;20046;-71
2023/07/21 10:19:29;;;;;;;4.20;0.98;;;;;;;;;;5099240;27;20058;-71
2023/07/21 10:21:56;;;;;;;2.67;0.90;;;;;;;;;;5116275;27;20367;-71
2023/07/21 10:24:32;;;;;;;4.20;0.80;;;;;;;;;;5135110;27;20046;-72
2023/07/21 10:27:03;;;;;;;2.20;0.70;;;;;;;;;;5135272;27;20043;-72
2023/07/21 10:29:29;;;;;;;1.77;0.80;;;;;;;;;;5134293;27;20479;-72
2023/07/21 10:31:56;;;;;;;3.15;0.70;;;;;;;;;;5134682;27;20047;-73
2023/07/21 10:34:22;;;;;;;;;;;;;;;;;;5100858;27;20391;-72
2023/07/21 10:36:54;;;;;;;2.47;1.02;;;;;;;;;;5117583;28;19919;-73
2023/07/21 10:39:21;;;;;;;3.55;0.85;;;;;;;;;;5099451;28;20138;-72
2023/07/21 10:41:48;;;;;;;2.17;0.90;;;;;;;;;;5134658;27;20135;-71
2023/07/21 10:44:14;;;;;;;4.82;1.10;;;;;;;;;;5116198;28;20047;-72
2023/07/21 10:46:44;;;;;;;2.95;1.10;;;;;;;;;;5099410;28;20094;-71
2023/07/21 10:49:12;;;;;;;4.25;1.30;;;;;;;;;;5116842;28;20039;-73
2023/07/21 10:51:42;;;;;;;3.70;1.40;;;;;;;;;;5116028;28;20479;-71
2023/07/21 10:54:08;;;;;;;3.65;1.30;;;;;;;;;;5135096;28;20453;-71
2023/07/21 10:56:35;;;;;;;;;;;;;;;;;;5100584;28;20047;-69
2023/07/21 10:59:03;;;;;;;4.97;1.80;;;;;;;;;;5134297;28;19919;-73
2023/07/21 11:01:29;;;;;;;5.05;1.80;;;;;;;;;;5116083;28;20395;-69
2023/07/21 11:03:55;;;;;;;5.47;1.73;;;;;;;;;;5134231;28;20043;-72
2023/07/21 11:06:22;;;;;;;3.42;1.42;;;;;;;;;;5134289;28;20039;-71
2023/07/21 11:08:48;;;;;;;;;;;;;;;;;;5117609;27;20082;-71
2023/07/21 11:11:14;;;;;;;3.58;1.08;;;;;;;;;;5120598;27;19942;-72
2023/07/21 11:13:40;;;;;;;4.65;1.15;;;;;;;;;;5138255;27;20042;-71
2023/07/21 11:16:06;;;;;;;3.80;1.35;;;;;;;;;;5120129;27;20478;-71
2023/07/21 11:18:33;;;;;;;3.28;1.00;;;;;;;;;;5119957;27;20043;-71
2023/07/21 11:20:59;;;;;;;2.25;1.02;;;;;;;;;;5138166;27;20165;-72
2023/07/21 11:23:28;;;;;;;5.65;1.30;;;;;;;;;;5103422;27;20047;-72
2023/07/21 11:26:00;;;;;;;3.83;1.10;;;;;;;;;;5120059;27;20053;-71
2023/07/21 11:28:28;;;;;;;3.13;1.17;;;;;;;;;;5138131;27;20043;-72
2023/07/21 11:30:54;;;;;;;2.72;1.00;;;;;;;;;;5137965;27;20517;-72
2023/07/21 11:33:21;;;;;;;2.63;1.05;;;;;;;;;;5137958;27;20394;-71
2023/07/21 11:35:48;;;;;;;3.55;1.70;;;;;;;;;;5102863;27;20094;-70
2023/07/21 11:38:14;;;;;;;4.65;1.90;;;;;;;;;;5120673;27;20366;-71
2023/07/21 11:40:41;;;;;;;3.55;1.33;;;;;;;;;;5139001;27;20047;-71
2023/07/21 11:43:08;;;;;;;2.90;1.15;;;;;;;;;;5138510;27;20043;-72
2023/07/21 11:45:41;;;;;;;2.10;0.80;;;;;;;;;;5137703;27;20050;-72
2023/07/21 11:48:12;;;;;;;3.13;1.40;;;;;;;;;;5138319;27;20051;-72
2023/07/21 11:50:39;;;;;;;4.28;1.30;;;;;;;;;;5137998;27;20451;-72
2023/07/21 11:53:06;;;;;;;3.08;1.00;;;;;;;;;;5120421;27;20043;-73
2023/07/21 11:55:32;;;;;;;2.95;0.88;;;;;;;;;;5119389;27;20059;-70
2023/07/21 11:57:58;;;;;;;1.88;0.60;;;;;;;;;;5137926;27;20082;-73
2023/07/21 12:00:24;;;;;;;1.80;0.70;;;;;;;;;;5137931;27;20122;-71
2023/07/21 12:02:51;;;;;;;;;;;;;;;;;;5102582;27;20043;-71
2023/07/21 12:05:18;;;;;;;2.47;0.80;;;;;;;;;;5119393;27;19972;-70
2023/07/21 12:07:44;;;;;;;2.30;0.77;;;;;;;;;;5119773;27;20051;-73
2023/07/21 12:10:10;;;;;;;4.45;0.70;;;;;;;;;;5102488;27;20054;-72
2023/07/21 12:12:37;;;;;;;2.95;0.88;;;;;;;;;;5119525;27;20047;-73
2023/07/21 12:15:03;;;;;;;;;;;;;;;;;;5119818;27;20051;-71
2023/07/21 12:17:29;;;;;;;1.95;0.70;;;;;;;;;;5137431;27;19972;-73
2023/07/21 12:19:55;;;;;;;3.08;0.60;;;;;;;;;;5136599;27;20051;-71
2023/07/21 12:22:24;;;;;;;1.70;0.70;;;;;;;;;;5136890;27;20058;-70
2023/07/21 12:24:51;;;;;;;2.45;0.70;;;;;;;;;;5102127;27;20087;-70
2023/07/21 12:27:18;;;;;;;2.28;0.60;;;;;;;;;;5137249;27;20047;-72
2023/07/21 12:29:44;;;;;;;2.55;0.60;;;;;;;;;;5118938;27;20047;-73
2023/07/21 12:32:10;;;;;;;;;;;;;;;;;;5137381;27;20047;-71
2023/07/21 12:34:37;;;;;;;3.72;0.70;;;;;;;;;;5102099;27;19945;-72
2023/07/21 12:37:03;;;;;;;3.55;0.90;;;;;;;;;;5118951;27;20054;-72
2023/07/21 12:39:29;;;;;;;2.25;0.60;;;;;;;;;;5136951;27;20403;-72
2023/07/21 12:41:56;;;;;;;3.22;0.70;;;;;;;;;;5137122;27;20124;-72
2023/07/21 12:44:22;;;;;;;1.52;0.50;;;;;;;;;;5120884;27;20047;-72
2023/07/21 12:46:48;;;;;;;2.45;0.70;;;;;;;;;;5106312;27;20130;-72
2023/07/21 12:49:14;;;;;;;1.10;0.40;;;;;;;;;;5119554;27;20061;-71
2023/07/21 12:51:40;;;;;;;1.58;0.43;;;;;;;;;;5118948;27;20050;-71
2023/07/21 12:54:06;;;;;;;2.05;0.47;;;;;;;;;;5136557;27;20059;-71
2023/07/21 12:56:33;;;;;;;0.75;0.30;;;;;;;;;;5101719;27;20059;-72
2023/07/21 12:58:59;;;;;;;;;;;;;;;;;;5120121;27;20333;-72
2023/07/21 13:01:25;;;;;;;2.70;0.70;;;;;;;;;;5136576;27;19926;-72
2023/07/21 13:03:51;;;;;;;4.10;0.70;;;;;;;;;;5117988;27;20043;-72
2023/07/21 13:06:17;;;;;;;3.03;0.60;;;;;;;;;;5136224;27;20061;-71
2023/07/21 13:08:43;;;;;;;3.42;0.68;;;;;;;;;;5117966;27;20051;-71
2023/07/21 13:11:09;;;;;;;3.28;0.60;;;;;;;;;;5136226;27;20132;-71
2023/07/21 13:13:35;;;;;;;5.78;0.95;;;;;;;;;;5118063;27;20051;-72